createdAt,value
2022-10-04T00:01:24.286Z,8.15
2022-10-04T00:03:54.862Z,9.63
2022-10-04T00:06:23.265Z,6.80
2022-10-04T00:08:54.299Z,6.95
2022-10-04T00:11:21.348Z,5.53
2022-10-04T00:13:50.289Z,7.18
2022-10-04T00:16:46.342Z,6.93
2022-10-04T00:19:16.434Z,7.30
2022-10-04T00:21:52.437Z,17.60
2022-10-04T00:24:33.386Z,10.27
2022-10-04T00:27:12.881Z,8.32
2022-10-04T00:29:42.207Z,12.50
2022-10-04T00:32:09.245Z,10.10
2022-10-04T00:34:47.862Z,11.48
2022-10-04T00:37:15.691Z,10.30
2022-10-04T00:39:44.798Z,8.32
2022-10-04T00:42:30.052Z,8.82
2022-10-04T00:44:59.873Z,9.27
2022-10-04T00:47:32.981Z,7.53
2022-10-04T00:50:12.085Z,9.02
2022-10-04T00:52:43.509Z,8.27
2022-10-04T00:55:14.984Z,8.98
2022-10-04T00:57:45.135Z,11.80
2022-10-04T01:00:15.936Z,12.05
2022-10-04T01:02:46.076Z,7.97
2022-10-04T01:05:34.316Z,9.90
2022-10-04T01:08:04.604Z,9.55
2022-10-04T01:10:33.430Z,6.75
2022-10-04T01:13:19.421Z,5.95
2022-10-04T01:15:50.379Z,6.10
2022-10-04T01:18:20.510Z,11.18
2022-10-04T01:20:54.464Z,6.13
2022-10-04T01:23:41.826Z,8.50
2022-10-04T01:26:24.323Z,9.10
2022-10-04T01:28:52.256Z,11.82
2022-10-04T01:31:19.494Z,6.22
2022-10-04T01:33:46.679Z,5.07
2022-10-04T01:36:13.816Z,5.85
2022-10-04T01:38:40.905Z,11.10
2022-10-04T01:41:09.075Z,8.20
2022-10-04T01:43:39.147Z,7.45
2022-10-04T01:46:12.215Z,5.18
2022-10-04T01:48:42.374Z,8.98
2022-10-04T01:51:14.288Z,6.13
2022-10-04T01:53:45.613Z,5.80
2022-10-04T01:56:17.487Z,7.13
2022-10-04T01:58:51.879Z,7.17
2022-10-04T02:01:22.127Z,6.60
2022-10-04T02:03:55.298Z,6.82
2022-10-04T02:06:23.014Z,11.65
2022-10-04T02:08:51.303Z,5.75
2022-10-04T02:11:20.389Z,8.25
2022-10-04T02:13:48.975Z,8.68
2022-10-04T02:16:17.789Z,10.63
2022-10-04T02:18:45.288Z,6.20
2022-10-04T02:21:13.139Z,5.53
2022-10-04T02:23:41.469Z,6.00
2022-10-04T02:26:09.511Z,6.00
2022-10-04T02:28:37.258Z,5.07
2022-10-04T02:31:23.347Z,6.00
2022-10-04T02:33:51.423Z,7.15
2022-10-04T02:36:19.527Z,5.70
2022-10-04T02:38:50.386Z,6.47
2022-10-04T02:41:23.617Z,8.10
2022-10-04T02:43:56.597Z,10.55
2022-10-04T02:46:26.908Z,8.45
2022-10-04T02:48:56.753Z,9.23
2022-10-04T02:51:25.624Z,6.72
2022-10-04T02:54:03.373Z,8.45
2022-10-04T02:56:31.835Z,9.18
2022-10-04T02:59:05.841Z,7.20
2022-10-04T03:01:51.913Z,6.55
2022-10-04T03:04:21.028Z,8.32
2022-10-04T03:06:48.843Z,7.32
2022-10-04T03:09:16.259Z,8.52
2022-10-04T03:11:43.926Z,5.82
2022-10-04T03:14:14.591Z,8.75
2022-10-04T03:16:43.694Z,6.18
2022-10-04T03:19:11.662Z,5.05
2022-10-04T03:21:40.765Z,6.13
2022-10-04T03:24:09.420Z,9.90
2022-10-04T03:26:42.918Z,7.57
2022-10-04T03:29:11.926Z,5.60
2022-10-04T03:31:43.600Z,7.20
2022-10-04T03:34:17.773Z,5.47
2022-10-04T03:36:47.110Z,6.82
2022-10-04T03:39:18.207Z,8.80
2022-10-04T03:41:45.859Z,5.35
2022-10-04T03:44:16.490Z,5.65
2022-10-04T03:46:45.136Z,6.35
2022-10-04T03:49:17.330Z,6.25
2022-10-04T03:51:46.074Z,6.15
2022-10-04T03:54:17.918Z,5.05
2022-10-04T03:56:45.381Z,5.93
2022-10-04T03:59:14.902Z,7.43
2022-10-04T04:02:01.154Z,5.32
2022-10-04T04:04:31.098Z,6.57
2022-10-04T04:07:00.983Z,8.20
2022-10-04T04:09:30.995Z,6.47
2022-10-04T04:11:58.550Z,6.53
2022-10-04T04:14:26.535Z,6.68
2022-10-04T04:17:13.555Z,6.93
2022-10-04T04:19:40.705Z,11.13
2022-10-04T04:22:12.447Z,6.43
2022-10-04T04:24:40.523Z,7.30
2022-10-04T04:27:10.428Z,9.38
2022-10-04T04:29:44.869Z,6.85
2022-10-04T04:32:31.918Z,5.93
2022-10-04T04:35:00.651Z,8.20
2022-10-04T04:37:27.840Z,5.30
2022-10-04T04:39:55.392Z,8.60
2022-10-04T04:42:31.835Z,14.02
2022-10-04T04:45:00.803Z,6.07
2022-10-04T04:47:29.988Z,11.20
2022-10-04T04:49:59.148Z,6.97
2022-10-04T04:52:28.412Z,8.68
2022-10-04T04:54:56.215Z,8.18
2022-10-04T04:57:23.597Z,7.47
2022-10-04T04:59:53.549Z,6.95
2022-10-04T05:02:37.345Z,9.77
2022-10-04T05:05:15.500Z,10.52
2022-10-04T05:07:45.803Z,12.35
2022-10-04T05:10:31.755Z,8.07
2022-10-04T05:13:00.145Z,9.55
2022-10-04T05:15:28.901Z,12.73
2022-10-04T05:17:56.021Z,12.25
2022-10-04T05:20:23.245Z,9.95
2022-10-04T05:22:51.368Z,13.50
2022-10-04T05:25:27.294Z,15.75
2022-10-04T05:27:56.083Z,12.00
2022-10-04T05:30:36.225Z,17.35
2022-10-04T05:33:11.674Z,11.45
2022-10-04T05:35:47.985Z,11.75
2022-10-04T05:38:33.205Z,17.58
2022-10-04T05:41:21.044Z,13.38
2022-10-04T05:43:51.963Z,26.75
2022-10-04T05:46:19.124Z,14.98
2022-10-04T05:48:46.947Z,18.73
2022-10-04T05:51:21.338Z,13.95
2022-10-04T05:53:50.000Z,14.32
2022-10-04T05:56:41.346Z,14.13
2022-10-04T05:59:14.619Z,15.90
2022-10-04T06:02:01.996Z,17.33
2022-10-04T06:04:34.861Z,19.02
2022-10-04T06:09:39.262Z,16.23
2022-10-04T06:12:11.625Z,17.65
2022-10-04T06:14:51.096Z,18.33
2022-10-04T06:17:27.203Z,42.72
2022-10-04T06:20:00.885Z,30.50
2022-10-04T06:22:28.005Z,16.65
2022-10-04T06:24:58.106Z,22.85
2022-10-04T06:27:36.244Z,21.13
2022-10-04T06:30:06.210Z,21.25
2022-10-04T06:32:51.979Z,37.13
2022-10-04T06:35:38.090Z,33.80
2022-10-04T06:38:11.280Z,28.77
2022-10-04T06:40:54.166Z,26.35
2022-10-04T06:43:30.513Z,20.00
2022-10-04T06:46:06.833Z,14.70
2022-10-04T06:48:39.454Z,12.77
2022-10-04T06:51:14.217Z,14.60
2022-10-04T06:53:47.081Z,13.55
2022-10-04T06:59:02.949Z,13.70
2022-10-04T07:01:34.955Z,9.57
2022-10-04T07:04:08.028Z,12.07
2022-10-04T07:06:38.734Z,15.77
2022-10-04T07:09:07.843Z,14.45
2022-10-04T07:11:50.506Z,8.85
2022-10-04T07:14:22.874Z,12.82
2022-10-04T07:17:03.129Z,10.90
2022-10-04T07:19:50.460Z,11.05
2022-10-04T07:22:21.167Z,11.45
2022-10-04T07:24:57.271Z,12.40
2022-10-04T07:27:35.548Z,9.13
2022-10-04T07:30:06.077Z,12.93
2022-10-04T07:32:38.706Z,15.75
2022-10-04T07:35:14.670Z,11.75
2022-10-04T07:38:00.459Z,8.35
2022-10-04T07:40:30.594Z,10.32
2022-10-04T07:43:00.868Z,8.40
2022-10-04T07:45:33.138Z,9.68
2022-10-04T07:48:12.158Z,7.07
2022-10-04T07:50:47.032Z,9.82
2022-10-04T07:53:19.980Z,7.10
2022-10-04T07:55:57.479Z,8.68
2022-10-04T07:58:53.703Z,12.43
2022-10-04T08:01:34.386Z,8.55
2022-10-04T08:04:14.247Z,11.98
2022-10-04T08:06:47.424Z,10.48
2022-10-04T08:09:24.323Z,7.85
2022-10-04T08:11:59.647Z,8.70
2022-10-04T08:14:39.792Z,10.43
2022-10-04T08:17:06.853Z,13.07
2022-10-04T08:19:52.609Z,12.38
2022-10-04T08:22:29.882Z,9.60
2022-10-04T08:25:17.239Z,8.10
2022-10-04T08:28:22.688Z,8.15
2022-10-04T08:31:13.151Z,7.07
2022-10-04T08:33:43.042Z,6.10
2022-10-04T08:36:30.351Z,9.77
2022-10-04T08:38:58.533Z,8.90
2022-10-04T08:41:28.566Z,10.25
2022-10-04T08:44:14.544Z,6.55
2022-10-04T08:47:00.680Z,6.15
2022-10-04T08:49:27.955Z,16.27
2022-10-04T08:52:19.064Z,8.13
2022-10-04T08:54:46.562Z,6.97
2022-10-04T08:57:16.428Z,7.68
2022-10-04T08:59:46.583Z,5.22
2022-10-04T09:02:19.844Z,5.85
2022-10-04T09:05:06.326Z,7.20
2022-10-04T09:07:51.939Z,8.65
2022-10-04T09:10:39.195Z,5.05
2022-10-04T09:13:25.263Z,5.57
2022-10-04T09:15:52.533Z,5.88
2022-10-04T09:18:38.369Z,6.55
2022-10-04T09:21:14.370Z,5.05
2022-10-04T09:23:41.411Z,6.28
2022-10-04T09:26:23.884Z,5.38
2022-10-04T09:29:20.259Z,5.20
2022-10-04T09:31:48.044Z,8.65
2022-10-04T09:34:17.096Z,7.15
2022-10-04T09:36:55.403Z,5.72
2022-10-04T09:39:41.141Z,9.45
2022-10-04T09:42:21.425Z,6.40
2022-10-04T09:44:48.503Z,3.85
2022-10-04T09:47:22.084Z,5.50
2022-10-04T09:49:52.023Z,3.53
2022-10-04T09:52:37.361Z,5.53
2022-10-04T09:55:13.947Z,7.38
2022-10-04T09:58:13.221Z,6.65
2022-10-04T10:00:50.605Z,6.30
2022-10-04T10:03:17.804Z,3.45
2022-10-04T10:05:44.983Z,5.30
2022-10-04T10:08:30.317Z,5.00
2022-10-04T10:11:26.826Z,7.80
2022-10-04T10:13:59.655Z,5.25
2022-10-04T10:19:15.469Z,3.42
2022-10-04T10:21:42.804Z,5.45
2022-10-04T10:24:10.518Z,5.78
2022-10-04T10:26:58.124Z,6.90
2022-10-04T10:29:43.527Z,5.32
2022-10-04T10:32:20.903Z,5.00
2022-10-04T10:34:48.903Z,4.55
2022-10-04T10:37:16.350Z,6.28
2022-10-04T10:39:57.709Z,6.85
2022-10-04T10:42:48.592Z,4.55
2022-10-04T10:45:21.190Z,7.43
2022-10-04T10:47:51.276Z,5.28
2022-10-04T10:50:18.388Z,7.70
2022-10-04T10:52:54.575Z,8.02
2022-10-04T10:55:27.482Z,3.83
2022-10-04T10:57:54.522Z,6.10
2022-10-04T11:00:27.753Z,7.03
2022-10-04T11:03:13.567Z,9.43
2022-10-04T11:05:41.675Z,4.78
2022-10-04T11:08:35.374Z,6.13
2022-10-04T11:11:05.198Z,5.80
2022-10-04T11:13:46.637Z,5.65
2022-10-04T11:16:34.332Z,6.40
2022-10-04T11:19:07.436Z,6.60
2022-10-04T11:21:52.907Z,4.45
2022-10-04T11:24:29.075Z,8.02
2022-10-04T11:27:05.218Z,7.70
2022-10-04T11:29:32.233Z,5.72
2022-10-04T11:32:02.387Z,6.50
2022-10-04T11:34:39.834Z,8.57
2022-10-04T11:37:13.816Z,5.65
2022-10-04T11:39:59.582Z,3.45
2022-10-04T11:42:32.755Z,5.25
2022-10-04T11:45:19.334Z,3.95
2022-10-04T11:48:10.273Z,3.35
2022-10-04T11:50:47.996Z,9.15
2022-10-04T11:53:34.241Z,6.57
2022-10-04T11:56:13.667Z,3.53
2022-10-04T11:58:46.443Z,3.90
2022-10-04T12:04:00.135Z,1.92
2022-10-04T12:06:40.494Z,5.22
2022-10-04T12:09:25.025Z,4.40
2022-10-04T12:12:25.870Z,2.22
2022-10-04T12:14:53.226Z,3.58
2022-10-04T12:17:33.412Z,3.67
2022-10-04T12:20:14.423Z,4.85
2022-10-04T12:22:53.770Z,2.22
2022-10-04T12:25:40.391Z,4.10
2022-10-04T12:28:20.349Z,3.00
2022-10-04T12:31:02.856Z,2.33
2022-10-04T12:33:36.138Z,4.20
2022-10-04T12:36:14.241Z,3.22
2022-10-04T12:38:41.334Z,2.55
2022-10-04T12:41:12.094Z,6.18
2022-10-04T12:43:57.625Z,3.70
2022-10-04T12:46:37.513Z,4.03
2022-10-04T12:49:21.340Z,5.13
2022-10-04T12:51:54.964Z,2.38
2022-10-04T12:54:27.886Z,2.78
2022-10-04T12:57:06.975Z,6.45
2022-10-04T12:59:34.040Z,4.82
2022-10-04T13:02:21.600Z,4.53
2022-10-04T13:04:51.007Z,2.75
2022-10-04T13:07:20.842Z,4.05
2022-10-04T13:10:12.144Z,4.45
2022-10-04T13:12:59.802Z,1.20
2022-10-04T13:18:31.146Z,2.22
2022-10-04T13:20:58.251Z,2.58
2022-10-04T13:23:48.589Z,3.08
2022-10-04T13:26:22.613Z,2.88
2022-10-04T13:29:04.332Z,4.20
2022-10-04T13:31:40.606Z,3.63
2022-10-04T13:34:26.853Z,4.55
2022-10-04T13:37:02.592Z,2.13
2022-10-04T13:39:29.674Z,5.25
2022-10-04T13:42:29.005Z,4.43
2022-10-04T13:45:18.289Z,2.50
2022-10-04T13:47:45.446Z,2.75
2022-10-04T13:50:15.366Z,2.10
2022-10-04T13:53:25.722Z,2.40
2022-10-04T13:56:23.262Z,3.65
2022-10-04T13:58:53.519Z,3.22
2022-10-04T14:01:20.777Z,3.35
2022-10-04T14:03:51.052Z,2.78
2022-10-04T14:06:18.102Z,3.65
2022-10-04T14:08:56.713Z,3.25
2022-10-04T14:11:36.123Z,3.42
2022-10-04T14:14:10.133Z,2.65
2022-10-04T14:16:56.202Z,2.90
2022-10-04T14:19:46.724Z,3.58
2022-10-04T14:22:25.853Z,1.75
2022-10-04T14:25:11.771Z,3.90
2022-10-04T14:27:58.701Z,1.35
2022-10-04T14:30:44.627Z,1.52
2022-10-04T14:33:11.690Z,3.28
2022-10-04T14:35:44.861Z,3.33
2022-10-04T14:38:26.784Z,3.25
2022-10-04T14:41:03.379Z,3.40
2022-10-04T14:43:30.683Z,2.88
2022-10-04T14:46:13.585Z,4.97
2022-10-04T14:51:15.568Z,3.33
2022-10-04T14:53:42.704Z,2.47
2022-10-04T14:56:15.774Z,2.95
2022-10-04T14:58:54.093Z,3.47
2022-10-04T15:01:34.306Z,3.95
2022-10-04T15:04:13.585Z,3.45
2022-10-04T15:06:49.195Z,4.07
2022-10-04T15:09:39.750Z,4.45
2022-10-04T15:12:40.843Z,4.60
2022-10-04T15:15:13.134Z,2.58
2022-10-04T15:18:02.095Z,3.20
2022-10-04T15:20:31.028Z,3.42
2022-10-04T15:23:13.212Z,2.05
2022-10-04T15:25:48.040Z,3.97
2022-10-04T15:28:27.203Z,5.00
2022-10-04T15:31:01.479Z,2.70
2022-10-04T15:33:28.561Z,4.28
2022-10-04T15:35:58.836Z,2.60
2022-10-04T15:38:25.890Z,3.63
2022-10-04T15:41:04.612Z,3.13
2022-10-04T15:43:34.848Z,2.28
2022-10-04T15:46:08.746Z,3.30
2022-10-04T15:48:57.741Z,3.88
2022-10-04T15:51:44.007Z,3.72
2022-10-04T15:54:13.908Z,4.47
2022-10-04T15:56:41.006Z,4.10
2022-10-04T15:59:19.042Z,2.70
2022-10-04T16:02:01.465Z,4.22
2022-10-04T16:04:47.141Z,5.88
2022-10-04T16:07:20.774Z,4.43
2022-10-04T16:09:58.779Z,6.47
2022-10-04T16:12:26.103Z,8.88
2022-10-04T16:14:58.520Z,7.07
2022-10-04T16:17:37.562Z,7.30
2022-10-04T16:20:11.161Z,9.27
2022-10-04T16:22:38.393Z,6.05
2022-10-04T16:25:24.167Z,6.80
2022-10-04T16:27:57.386Z,5.75
2022-10-04T16:30:34.067Z,3.97
2022-10-04T16:33:28.703Z,3.30
2022-10-04T16:36:04.532Z,6.13
2022-10-04T16:38:35.200Z,3.45
2022-10-04T16:41:09.301Z,5.43
2022-10-04T16:43:39.588Z,3.55
2022-10-04T16:46:13.826Z,4.50
2022-10-04T16:48:49.782Z,4.88
2022-10-04T16:51:16.857Z,2.75
2022-10-04T16:53:50.210Z,8.13
2022-10-04T16:56:19.562Z,5.35
2022-10-04T16:59:06.769Z,5.28
2022-10-04T17:01:55.177Z,6.82
2022-10-04T17:04:42.191Z,6.43
2022-10-04T17:07:28.172Z,9.73
2022-10-04T17:09:56.332Z,4.13
2022-10-04T17:12:41.985Z,7.57
2022-10-04T17:15:21.618Z,6.28
2022-10-04T17:18:06.883Z,4.78
2022-10-04T17:20:39.971Z,7.28
2022-10-04T17:23:30.077Z,6.95
2022-10-04T17:26:14.683Z,4.65
2022-10-04T17:28:47.955Z,5.85
2022-10-04T17:31:16.173Z,5.50
2022-10-04T17:33:43.439Z,6.95
2022-10-04T17:36:14.339Z,6.57
2022-10-04T17:38:45.148Z,5.53
2022-10-04T17:41:31.022Z,4.40
2022-10-04T17:44:04.276Z,7.40
2022-10-04T17:46:37.976Z,8.25
2022-10-04T17:49:31.210Z,3.85
2022-10-04T17:55:05.882Z,6.15
2022-10-04T17:57:35.776Z,5.00
2022-10-04T18:00:16.146Z,6.80
2022-10-04T18:02:45.975Z,6.20
2022-10-04T18:05:18.679Z,4.88
2022-10-04T18:10:24.636Z,6.80
2022-10-04T18:13:01.772Z,4.97
2022-10-04T18:15:34.777Z,6.47
2022-10-04T18:18:11.045Z,7.72
2022-10-04T18:20:40.648Z,8.45
2022-10-04T18:23:16.955Z,9.15
2022-10-04T18:25:44.299Z,6.55
2022-10-04T18:28:13.636Z,5.88
2022-10-04T18:30:40.944Z,8.32
2022-10-04T18:33:14.403Z,8.20
2022-10-04T18:35:51.383Z,8.85
2022-10-04T18:38:21.445Z,10.57
2022-10-04T18:40:55.914Z,12.05
2022-10-04T18:43:31.136Z,11.00
2022-10-04T18:46:06.783Z,11.63
2022-10-04T18:48:53.090Z,8.38
2022-10-04T18:51:28.926Z,7.75
2022-10-04T18:54:16.280Z,9.60
2022-10-04T18:57:02.343Z,9.80
2022-10-04T19:00:07.464Z,7.43
2022-10-04T19:03:03.696Z,8.93
2022-10-04T19:05:35.771Z,8.77
2022-10-04T19:08:41.278Z,9.88
2022-10-04T19:11:21.059Z,13.38
2022-10-04T19:13:48.363Z,10.68
2022-10-04T19:16:17.727Z,15.95
2022-10-04T19:19:10.989Z,14.73
2022-10-04T19:24:14.935Z,18.88
2022-10-04T19:26:44.340Z,23.45
2022-10-04T19:29:11.643Z,25.13
2022-10-04T19:31:50.441Z,22.13
2022-10-04T19:34:21.138Z,21.10
2022-10-04T19:36:54.430Z,24.88
2022-10-04T19:39:40.427Z,23.08
2022-10-04T19:42:15.610Z,18.15
2022-10-04T19:44:51.954Z,16.67
2022-10-04T19:47:35.196Z,24.67
2022-10-04T19:50:05.390Z,25.33
2022-10-04T19:52:32.456Z,17.73
2022-10-04T19:55:21.472Z,16.83
2022-10-04T19:57:58.546Z,15.75
2022-10-04T20:00:25.684Z,14.20
2022-10-04T20:02:53.060Z,12.00
2022-10-04T20:05:28.281Z,14.40
2022-10-04T20:08:05.181Z,13.00
2022-10-04T20:10:34.948Z,13.45
2022-10-04T20:13:08.726Z,8.68
2022-10-04T20:15:36.344Z,9.10
2022-10-04T20:18:23.439Z,14.25
2022-10-04T20:20:57.214Z,11.05
2022-10-04T20:23:37.418Z,7.75
2022-10-04T20:26:11.665Z,9.45
2022-10-04T20:28:43.591Z,13.00
2022-10-04T20:31:20.411Z,8.80
2022-10-04T20:33:48.099Z,10.95
2022-10-04T20:36:21.118Z,11.82
2022-10-04T20:39:01.542Z,7.95
2022-10-04T20:41:28.582Z,7.93
2022-10-04T20:44:02.751Z,7.88
2022-10-04T20:46:39.610Z,7.97
2022-10-04T20:49:15.227Z,9.18
2022-10-04T20:51:50.567Z,10.10
2022-10-04T20:54:18.346Z,16.13
2022-10-04T20:56:49.071Z,17.35
2022-10-04T20:59:19.687Z,14.82
2022-10-04T21:02:06.766Z,16.95
2022-10-04T21:04:41.618Z,19.33
2022-10-04T21:07:13.313Z,18.63
2022-10-04T21:09:42.051Z,18.13
2022-10-04T21:12:27.808Z,16.10
2022-10-04T21:15:06.521Z,12.43
2022-10-04T21:17:35.143Z,18.38
2022-10-04T21:20:04.731Z,15.50
2022-10-04T21:22:33.692Z,13.45
2022-10-04T21:25:06.140Z,15.65
2022-10-04T21:27:44.655Z,13.85
2022-10-04T21:30:16.726Z,16.88
2022-10-04T21:32:44.227Z,17.33
2022-10-04T21:35:12.270Z,14.82
2022-10-04T21:37:39.546Z,12.85
2022-10-04T21:40:07.054Z,14.73
2022-10-04T21:42:34.317Z,15.32
2022-10-04T21:45:01.400Z,15.20
2022-10-04T21:47:28.527Z,15.65
2022-10-04T21:49:55.593Z,14.68
2022-10-04T21:52:22.785Z,12.90
2022-10-04T21:54:49.962Z,14.80
2022-10-04T21:57:17.075Z,16.08
2022-10-04T21:59:44.161Z,14.90
2022-10-04T22:02:11.327Z,15.60
2022-10-04T22:04:38.479Z,13.10
2022-10-04T22:07:05.562Z,15.98
2022-10-04T22:09:33.932Z,14.05
2022-10-04T22:12:01.199Z,9.63
2022-10-04T22:14:28.355Z,11.82
2022-10-04T22:16:55.449Z,11.65
2022-10-04T22:19:22.611Z,8.35
2022-10-04T22:21:49.713Z,15.73
2022-10-04T22:24:20.767Z,11.93
2022-10-04T22:26:48.539Z,9.57
2022-10-04T22:29:17.339Z,12.85
2022-10-04T22:31:47.258Z,19.00
2022-10-04T22:34:19.168Z,13.18
2022-10-04T22:36:47.293Z,18.80
2022-10-04T22:39:15.930Z,13.68
2022-10-04T22:41:44.393Z,15.77
2022-10-04T22:44:14.234Z,12.90
2022-10-04T22:46:43.426Z,19.90
2022-10-04T22:49:16.046Z,28.33
2022-10-04T22:51:44.398Z,18.30
2022-10-04T22:54:12.788Z,17.42
2022-10-04T22:56:41.192Z,17.45
2022-10-04T22:59:15.726Z,15.40
2022-10-04T23:01:43.630Z,12.80
2022-10-04T23:04:16.891Z,11.98
2022-10-04T23:06:44.342Z,10.25
2022-10-04T23:09:11.716Z,9.52
2022-10-04T23:11:38.818Z,9.48
2022-10-04T23:14:07.559Z,8.48
2022-10-04T23:16:34.923Z,12.05
2022-10-04T23:19:07.183Z,16.17
2022-10-04T23:21:35.091Z,18.13
2022-10-04T23:24:05.566Z,11.32
2022-10-04T23:26:37.020Z,12.43
2022-10-04T23:29:06.610Z,12.35
2022-10-04T23:31:34.920Z,11.40
2022-10-04T23:34:02.548Z,14.00
2022-10-04T23:36:29.671Z,9.52
2022-10-04T23:38:58.148Z,10.43
2022-10-04T23:41:26.083Z,9.35
2022-10-04T23:43:53.138Z,8.68
2022-10-04T23:46:22.408Z,10.20
2022-10-04T23:48:49.846Z,12.32
2022-10-04T23:51:17.934Z,9.73
2022-10-04T23:53:45.879Z,11.07
2022-10-04T23:56:20.133Z,11.18
2022-10-04T23:58:47.804Z,13.00
